Time;durP1;ratioP1;P1;durP2;ratioP2;P2;SDS_P1;SDS_P2;PMS_P1;PMS_P2;Temp;Humidity;BMP_temperature;BMP_pressure;BME280_temperature;BME280_humidity;BME280_pressure;Samples;Min_cycle;Max_cycle;Signal;HPM_P1;HPM_P2
2021/05/17 00:02:12;;;;;;;;;;;;;;;20.86;68.39;99787.73;1684529;82;20221;-65
2021/05/17 00:04:40;;;;;;;;;;;;;;;20.86;68.36;99788.30;1679853;83;21016;-65
2021/05/17 00:07:08;;;;;;;;;;;;;;;20.84;68.35;99785.06;1687296;82;20290;-65
2021/05/17 00:09:34;;;;;;;;;;;;;;;20.82;68.36;99778.52;1694437;82;20328;-66
2021/05/17 00:12:00;;;;;;;;;;;;;;;20.81;68.33;99775.52;1685692;82;20310;-65
2021/05/17 00:14:27;;;;;;;;;;;;;;;20.83;68.27;99775.98;1691436;83;21277;-65
2021/05/17 00:16:53;;;;;;;;;;;;;;;20.85;68.25;99769.53;1687676;83;21121;-65
2021/05/17 00:19:19;;;;;;;;;;;;;;;20.87;68.26;99763.09;1694119;82;20241;-65
2021/05/17 00:21:46;;;;;;;;;;;;;;;20.89;68.25;99764.11;1692078;82;20212;-65
2021/05/17 00:24:13;;;;;;;;;;;;;;;20.92;68.27;99756.50;1686709;82;20243;-65
2021/05/17 00:26:39;;;;;;;;;;;;;;;20.94;68.25;99756.41;1679068;83;20307;-64
2021/05/17 00:29:06;;;;;;;;;;;;;;;20.97;68.26;99756.28;1679810;83;21073;-66
2021/05/17 00:31:33;;;;;;;;;;;;;;;20.98;68.24;99750.41;1684627;82;20615;-65
2021/05/17 00:33:59;;;;;;;;;;;;;;;21.03;68.20;99751.33;1695784;83;20238;-64
2021/05/17 00:36:25;;;;;;;;;;;;;;;21.05;68.17;99754.58;1682353;82;20331;-65
2021/05/17 00:38:51;;;;;;;;;;;;;;;21.07;68.14;99752.26;1688923;83;20239;-65
2021/05/17 00:41:18;;;;;;;;;;;;;;;21.07;68.15;99752.26;1686627;82;21670;-65
2021/05/17 00:43:45;;;;;;;;;;;;;;;21.07;68.11;99753.64;1688287;82;20259;-65
2021/05/17 00:46:11;;;;;;;;;;;;;;;21.05;68.08;99748.44;1674471;83;20249;-65
2021/05/17 00:48:38;;;;;;;;;;;;;;;21.05;68.05;99747.66;1684529;82;20317;-65
2021/05/17 00:51:05;;;;;;;;;;;;;;;21.04;68.00;99752.95;1682667;83;20206;-66
2021/05/17 00:53:32;;;;;;;;;;;;;;;21.01;67.98;99753.05;1685790;82;21098;-65
2021/05/17 00:55:58;;;;;;;;;;;;;;;21.00;67.93;99746.50;1678575;83;20603;-65
2021/05/17 00:58:26;;;;;;;;;;;;;;;20.96;67.91;99749.16;1676567;82;20332;-64
2021/05/17 01:00:52;;;;;;;;;;;;;;;20.95;67.89;99753.06;1681707;83;20236;-65
2021/05/17 01:03:18;;;;;;;;;;;;;;;20.93;67.86;99752.02;1694305;82;20812;-64
2021/05/17 01:05:44;;;;;;;;;;;;;;;20.91;67.84;99755.72;1659106;83;21126;-64
2021/05/17 01:08:13;;;;;;;;;;;;;;;20.90;67.81;99756.05;1672547;82;20514;-64
2021/05/17 01:10:43;;;;;;;;;;;;;;;20.86;67.78;99754.56;1692828;83;20243;-65
2021/05/17 01:13:09;;;;;;;;;;;;;;;20.84;67.78;99765.14;1675399;83;20324;-65
2021/05/17 01:15:35;;;;;;;;;;;;;;;20.81;67.76;99758.92;1644903;84;20554;-66
2021/05/17 01:18:01;;;;;;;;;;;;;;;20.80;67.76;99753.73;1658022;84;21125;-65
2021/05/17 01:20:31;;;;;;;;;;;;;;;20.78;67.76;99755.48;1635273;86;20202;-65
2021/05/17 01:25:59;;;;;;;;;;;;;;;20.74;67.74;99756.50;1651997;84;20487;-65
2021/05/17 01:28:29;;;;;;;;;;;;;;;20.71;67.71;99751.07;1651815;84;20299;-65
2021/05/17 01:31:05;;;;;;;;;;;;;;;20.69;67.70;99758.91;1658890;84;21066;-65
2021/05/17 01:33:33;;;;;;;;;;;;;;;20.67;67.72;99755.67;1652994;84;20256;-65
2021/05/17 01:36:00;;;;;;;;;;;;;;;20.66;67.71;99758.23;1658815;84;20562;-65
2021/05/17 01:38:27;;;;;;;;;;;;;;;20.65;67.69;99759.94;1654051;84;20739;-65
2021/05/17 01:40:53;;;;;;;;;;;;;;;20.62;67.69;99758.69;1652789;84;20385;-65
2021/05/17 01:43:19;;;;;;;;;;;;;;;20.62;67.67;99759.25;1673796;83;22210;-66
2021/05/17 01:45:45;;;;;;;;;;;;;;;20.61;67.70;99761.20;1653079;84;20238;-65
2021/05/17 01:48:12;;;;;;;;;;;;;;;20.58;67.68;99761.87;1665054;84;20246;-66
2021/05/17 01:50:38;;;;;;;;;;;;;;;20.60;67.68;99767.06;1665054;84;20394;-65
2021/05/17 01:53:05;;;;;;;;;;;;;;;20.62;67.62;99764.21;1645754;84;20245;-65
2021/05/17 01:55:30;;;;;;;;;;;;;;;20.64;67.61;99758.32;1651579;84;21131;-65
2021/05/17 01:58:14;;;;;;;;;;;;;;;20.65;67.63;99759.37;1650294;84;20700;-65
2021/05/17 02:00:41;;;;;;;;;;;;;;;20.69;67.64;99773.30;1649644;84;20296;-65
2021/05/17 02:03:08;;;;;;;;;;;;;;;20.72;67.65;99764.31;1652476;84;20320;-65
2021/05/17 02:05:34;;;;;;;;;;;;;;;20.74;67.65;99754.55;1651981;84;20266;-65
2021/05/17 02:08:01;;;;;;;;;;;;;;;20.77;67.65;99747.52;1659960;84;21160;-65
2021/05/17 02:10:27;;;;;;;;;;;;;;;20.79;67.62;99747.39;1650524;84;20475;-65
2021/05/17 02:12:53;;;;;;;;;;;;;;;20.82;67.60;99747.30;1663156;84;20476;-65
2021/05/17 02:15:20;;;;;;;;;;;;;;;20.84;67.58;99743.02;1648416;84;20242;-64
2021/05/17 02:17:46;;;;;;;;;;;;;;;20.87;67.55;99746.50;1646740;84;20309;-65
2021/05/17 02:20:16;;;;;;;;;;;;;;;20.87;67.52;99745.12;1629754;84;21343;-65
2021/05/17 02:22:45;;;;;;;;;;;;;;;20.88;67.50;99737.61;1666443;84;20279;-65
2021/05/17 02:25:12;;;;;;;;;;;;;;;20.88;67.44;99738.41;1674959;84;20228;-65
2021/05/17 02:27:42;;;;;;;;;;;;;;;20.85;67.37;99739.11;1653267;84;20253;-65
2021/05/17 02:30:12;;;;;;;;;;;;;;;20.84;67.34;99744.41;1655627;84;20195;-65
2021/05/17 02:32:38;;;;;;;;;;;;;;;20.81;67.29;99745.11;1666200;84;21703;-65
2021/05/17 02:35:06;;;;;;;;;;;;;;;20.81;67.25;99751.20;1652628;84;20144;-65
2021/05/17 02:37:33;;;;;;;;;;;;;;;20.78;67.21;99744.99;1670598;84;20239;-64
2021/05/17 02:40:00;;;;;;;;;;;;;;;20.76;67.20;99743.13;1650908;84;20549;-65
2021/05/17 02:42:27;;;;;;;;;;;;;;;20.73;67.16;99747.41;1649892;84;20366;-64
2021/05/17 02:44:55;;;;;;;;;;;;;;;20.71;67.12;99744.16;1646868;84;21107;-65
2021/05/17 02:47:22;;;;;;;;;;;;;;;20.69;67.11;99750.63;1651276;84;20276;-65
2021/05/17 02:49:50;;;;;;;;;;;;;;;20.68;67.10;99752.34;1671153;83;20294;-64
2021/05/17 02:52:16;;;;;;;;;;;;;;;20.65;67.10;99748.89;1683971;83;20562;-64
2021/05/17 02:54:43;;;;;;;;;;;;;;;20.64;67.07;99750.03;1666451;83;20320;-65
2021/05/17 02:57:12;;;;;;;;;;;;;;;20.61;67.04;99756.25;1678866;82;21548;-64
2021/05/17 02:59:42;;;;;;;;;;;;;;;20.59;67.04;99753.81;1670547;83;20273;-65
2021/05/17 03:02:08;;;;;;;;;;;;;;;20.58;67.04;99752.80;1670780;82;20279;-64
2021/05/17 03:04:38;;;;;;;;;;;;;;;20.56;67.04;99752.32;1675097;83;20251;-65
2021/05/17 03:07:06;;;;;;;;;;;;;;;20.55;67.01;99750.70;1688444;83;20747;-65
2021/05/17 03:09:32;;;;;;;;;;;;;;;20.53;67.00;99753.83;1672248;83;21756;-64
2021/05/17 03:11:59;;;;;;;;;;;;;;;20.52;67.00;99763.25;1653240;84;20340;-65
2021/05/17 03:14:25;;;;;;;;;;;;;;;20.50;66.98;99763.59;1669500;83;20274;-65
2021/05/17 03:16:52;;;;;;;;;;;;;;;20.49;66.98;99762.56;1698518;82;20310;-65
2021/05/17 03:19:18;;;;;;;;;;;;;;;20.49;66.96;99765.33;1694768;82;20250;-64
2021/05/17 03:21:44;;;;;;;;;;;;;;;20.47;66.95;99754.61;1681943;83;20974;-65
2021/05/17 03:24:10;;;;;;;;;;;;;;;20.47;66.93;99766.23;1705332;82;20223;-65
2021/05/17 03:26:36;;;;;;;;;;;;;;;20.45;66.91;99765.17;1708712;81;20393;-65
2021/05/17 03:29:03;;;;;;;;;;;;;;;20.45;66.91;99765.78;1702960;82;20302;-65
2021/05/17 03:31:29;;;;;;;;;;;;;;;20.44;66.89;99766.92;1697787;82;20592;-65
2021/05/17 03:33:59;;;;;;;;;;;;;;;20.43;66.89;99768.88;1701322;83;21120;-65
2021/05/17 03:36:25;;;;;;;;;;;;;;;20.44;66.89;99769.69;1698867;81;20287;-65
2021/05/17 03:38:51;;;;;;;;;;;;;;;20.46;66.83;99777.04;1699854;82;20306;-65
2021/05/17 03:41:17;;;;;;;;;;;;;;;20.48;66.78;99781.67;1672568;83;20272;-65
2021/05/17 03:43:43;;;;;;;;;;;;;;;20.50;66.81;99784.88;1702169;82;20300;-64
2021/05/17 03:46:09;;;;;;;;;;;;;;;20.53;66.84;99781.45;1700443;82;21079;-65
2021/05/17 03:48:41;;;;;;;;;;;;;;;20.56;66.83;99779.37;1688981;82;20792;-64
2021/05/17 03:51:03;;;;;;;;;;;;;;;20.59;66.85;99784.22;1702960;82;20295;-65
2021/05/17 03:53:31;;;;;;;;;;;;;;;20.62;66.83;99787.70;1703121;82;20562;-65
2021/05/17 03:55:57;;;;;;;;;;;;;;;20.65;66.80;99793.91;1695731;82;20553;-64
2021/05/17 03:58:23;;;;;;;;;;;;;;;20.69;66.77;99802.33;1709940;81;22096;-65
2021/05/17 04:00:49;;;;;;;;;;;;;;;20.71;66.76;99795.89;1702253;82;20209;-65
2021/05/17 04:03:17;;;;;;;;;;;;;;;20.73;66.74;99800.48;1702319;81;20236;-66
2021/05/17 04:06:08;;;;;;;;;;;;;;;20.74;66.76;99804.30;1663677;84;20298;-64
2021/05/17 04:13:57;;;;;;;;;;;;;;;20.74;66.68;99799.34;1695781;81;20549;-61
2021/05/17 04:16:23;;;;;;;;;;;;;;;20.73;66.65;99807.40;1689200;82;20256;-65
2021/05/17 04:18:50;;;;;;;;;;;;;;;20.71;66.64;99810.50;1698454;81;20196;-66
2021/05/17 04:21:16;;;;;;;;;;;;;;;20.70;66.62;99804.76;1688332;81;20607;-65
2021/05/17 04:23:42;;;;;;;;;;;;;;;20.68;66.60;99808.42;1687580;83;21923;-66
2021/05/17 04:26:08;;;;;;;;;;;;;;;20.67;66.59;99811.52;1676028;82;21630;-65
2021/05/17 04:28:34;;;;;;;;;;;;;;;20.65;66.59;99809.12;1647818;84;20249;-65
2021/05/17 04:31:00;;;;;;;;;;;;;;;20.64;66.60;99811.64;1659907;84;20199;-65
2021/05/17 04:33:26;;;;;;;;;;;;;;;20.62;66.57;99812.57;1655281;84;20216;-66
2021/05/17 04:35:52;;;;;;;;;;;;;;;20.60;66.58;99814.86;1651830;84;21148;-67
2021/05/17 04:38:18;;;;;;;;;;;;;;;20.59;66.58;99813.23;1658721;84;20283;-66
2021/05/17 04:40:46;;;;;;;;;;;;;;;20.59;66.59;99816.56;1660618;84;20628;-64
2021/05/17 04:43:11;;;;;;;;;;;;;;;20.57;66.60;99815.55;1667358;83;20280;-64
2021/05/17 04:45:37;;;;;;;;;;;;;;;20.59;66.61;99814.61;1672430;83;20278;-63
2021/05/17 04:48:04;;;;;;;;;;;;;;;20.58;66.59;99810.23;1667468;83;21129;-64
2021/05/17 04:50:30;;;;;;;;;;;;;;;20.58;66.59;99816.36;1677748;83;20171;-64
2021/05/17 04:52:56;;;;;;;;;;;;;;;20.56;66.60;99820.83;1667846;84;20204;-65
2021/05/17 04:55:23;;;;;;;;;;;;;;;20.55;66.58;99820.59;1638458;84;20291;-64
2021/05/17 04:57:49;;;;;;;;;;;;;;;20.54;66.56;99822.33;1616464;84;20302;-64
2021/05/17 05:00:15;;;;;;;;;;;;;;;20.53;66.56;99825.67;1656943;84;21015;-64
2021/05/17 05:02:42;;;;;;;;;;;;;;;20.51;66.54;99815.52;1657813;84;20285;-64
2021/05/17 05:05:08;;;;;;;;;;;;;;;20.50;66.55;99815.27;1664706;84;20696;-63
2021/05/17 05:07:34;;;;;;;;;;;;;;;20.50;66.56;99819.42;1643179;84;20528;-64
2021/05/17 05:10:01;;;;;;;;;;;;;;;20.48;66.55;99824.49;1660428;83;20557;-64
2021/05/17 05:12:27;;;;;;;;;;;;;;;20.48;66.56;99828.64;1659210;84;21836;-64
2021/05/17 05:14:53;;;;;;;;;;;;;;;20.46;66.56;99828.97;1656308;84;21610;-64
2021/05/17 05:17:19;;;;;;;;;;;;;;;20.45;66.54;99830.11;1653667;84;20213;-64
2021/05/17 05:19:44;;;;;;;;;;;;;;;20.48;66.49;99829.45;1667397;84;20201;-64
2021/05/17 05:22:10;;;;;;;;;;;;;;;20.50;66.48;99831.85;1651256;84;20269;-64
2021/05/17 05:24:36;;;;;;;;;;;;;;;20.53;66.49;99831.20;1652966;84;21075;-64
2021/05/17 05:32:32;;;;;;;;;;;;;;;20.60;66.51;99829.24;1604706;87;20239;-64
2021/05/17 05:34:57;;;;;;;;;;;;;;;20.61;66.50;99828.91;1626470;84;20225;-64
2021/05/17 05:37:23;;;;;;;;;;;;;;;20.63;66.53;99832.13;1644112;84;23342;-64
2021/05/17 05:39:49;;;;;;;;;;;;;;;20.67;66.50;99828.91;1657635;84;20300;-64
2021/05/17 05:42:15;;;;;;;;;;;;;;;20.70;66.47;99827.44;1661135;84;20284;-64
2021/05/17 05:44:45;;;;;;;;;;;;;;;20.71;66.46;99828.46;1647312;84;20243;-64
2021/05/17 05:47:15;;;;;;;;;;;;;;;20.72;66.45;99825.13;1654765;84;20256;-64
2021/05/17 05:49:40;;;;;;;;;;;;;;;20.72;66.40;99824.55;1653504;84;21248;-64
2021/05/17 05:52:06;;;;;;;;;;;;;;;20.72;66.40;99827.32;1644789;84;20222;-64
2021/05/17 05:54:32;;;;;;;;;;;;;;;20.72;66.33;99824.55;1675472;83;20236;-64
2021/05/17 05:56:58;;;;;;;;;;;;;;;20.71;66.28;99824.92;1680876;82;20555;-64
2021/05/17 05:59:24;;;;;;;;;;;;;;;20.70;66.25;99823.30;1676629;83;20767;-64
2021/05/17 06:01:50;;;;;;;;;;;;;;;20.67;66.20;99824.77;1679498;83;20436;-64
2021/05/17 06:04:17;;;;;;;;;;;;;;;20.67;66.17;99827.53;1666715;82;21628;-64
2021/05/17 06:06:44;;;;;;;;;;;;;;;20.65;66.13;99830.41;1691297;83;20303;-64
2021/05/17 06:09:11;;;;;;;;;;;;;;;20.63;66.11;99828.55;1685967;82;20502;-64
2021/05/17 06:11:37;;;;;;;;;;;;;;;20.61;66.08;99822.58;1685377;83;20230;-64
2021/05/17 06:14:04;;;;;;;;;;;;;;;20.60;66.06;99818.19;1687360;82;21098;-64
2021/05/17 06:16:33;;;;;;;;;;;;;;;20.57;66.02;99821.07;1684831;83;20493;-64
2021/05/17 06:19:00;;;;;;;;;;;;;;;20.56;65.99;99820.02;1694290;81;20273;-64
2021/05/17 06:21:28;;;;;;;;;;;;;;;20.55;66.00;99823.35;1684564;83;20231;-64
2021/05/17 06:23:57;;;;;;;;;;;;;;;20.53;65.99;99827.05;1677042;83;20538;-64
2021/05/17 06:26:25;;;;;;;;;;;;;;;20.50;65.95;99831.28;1696254;82;21059;-65
2021/05/17 06:28:51;;;;;;;;;;;;;;;20.49;65.94;99832.45;1686423;83;20288;-64
2021/05/17 06:31:18;;;;;;;;;;;;;;;20.48;65.92;99828.06;1678898;83;20706;-64
2021/05/17 06:33:44;;;;;;;;;;;;;;;20.47;65.92;99825.06;1687592;82;20244;-64
2021/05/17 06:36:13;;;;;;;;;;;;;;;20.46;65.91;99822.06;1693508;82;20527;-64
2021/05/17 06:38:40;;;;;;;;;;;;;;;20.45;65.90;99819.05;1688426;82;20824;-64
2021/05/17 06:41:07;;;;;;;;;;;;;;;20.44;65.90;99823.56;1692152;83;20249;-65
2021/05/17 06:43:35;;;;;;;;;;;;;;;20.43;65.88;99828.27;1678550;84;20518;-65
2021/05/17 06:46:03;;;;;;;;;;;;;;;20.42;65.87;99831.36;1686410;83;20324;-65
2021/05/17 06:48:29;;;;;;;;;;;;;;;20.42;65.85;99829.41;1688020;82;20132;-65
2021/05/17 06:50:55;;;;;;;;;;;;;;;20.41;65.84;99832.53;1694771;82;21067;-65
2021/05/17 06:53:24;;;;;;;;;;;;;;;20.40;65.84;99826.77;1683037;82;20633;-64
2021/05/17 06:58:26;;;;;;;;;;;;;;;20.38;65.81;99828.48;1688040;82;20262;-64
2021/05/17 07:00:47;;;;;;;;;;;;;;;20.38;65.81;99829.86;1692248;82;20253;-64
2021/05/17 07:03:14;;;;;;;;;;;;;;;20.37;65.78;99828.81;1686909;82;21118;-64
2021/05/17 07:05:40;;;;;;;;;;;;;;;20.37;65.78;99828.23;1686024;82;20592;-64
2021/05/17 07:13:20;;;;;;;;;;;;;;;20.36;65.74;99820.31;1691518;83;20209;-64
2021/05/17 07:15:47;;;;;;;;;;;;;;;20.39;65.69;99816.28;1694871;82;21061;-64
2021/05/17 07:18:13;;;;;;;;;;;;;;;20.42;65.68;99821.70;1698091;82;20470;-64
2021/05/17 07:25:56;;;;;;;;;;;;;;;20.50;65.68;99816.66;1690786;82;20196;-65
2021/05/17 07:28:22;;;;;;;;;;;;;;;20.54;65.67;99816.80;1684711;83;23129;-64
2021/05/17 07:30:48;;;;;;;;;;;;;;;20.57;65.69;99814.73;1676166;82;21636;-64
2021/05/17 07:33:14;;;;;;;;;;;;;;;20.59;65.66;99815.19;1692151;82;20256;-64
2021/05/17 07:35:41;;;;;;;;;;;;;;;20.62;65.64;99819.48;1692251;82;20212;-64
2021/05/17 07:38:07;;;;;;;;;;;;;;;20.65;65.61;99821.55;1688754;83;20199;-64
2021/05/17 07:40:33;;;;;;;;;;;;;;;20.67;65.60;99818.43;1686755;83;21188;-63
2021/05/17 07:42:59;;;;;;;;;;;;;;;20.68;65.59;99820.86;1697856;82;20161;-63
2021/05/17 07:45:25;;;;;;;;;;;;;;;20.69;65.56;99826.63;1677618;83;20273;-64
2021/05/17 07:47:51;;;;;;;;;;;;;;;20.70;65.50;99821.91;1691802;82;20445;-64
2021/05/17 07:50:17;;;;;;;;;;;;;;;20.70;65.47;99815.00;1650669;84;20233;-64
2021/05/17 07:52:43;;;;;;;;;;;;;;;20.69;65.43;99817.53;1684580;83;21063;-64
2021/05/17 07:55:10;;;;;;;;;;;;;;;20.69;65.40;99811.42;1681461;83;20257;-64
2021/05/17 07:57:36;;;;;;;;;;;;;;;20.68;65.35;99808.42;1650013;84;20223;-64
2021/05/17 08:00:04;;;;;;;;;;;;;;;20.67;65.31;99807.38;1658104;83;20230;-64
2021/05/17 08:02:30;;;;;;;;;;;;;;;20.65;65.26;99798.06;1664334;83;20223;-64
2021/05/17 08:04:56;;;;;;;;;;;;;;;20.64;65.23;99797.02;1673048;83;21749;-64
2021/05/17 08:07:22;;;;;;;;;;;;;;;20.62;65.23;99794.61;1660263;84;21793;-63
2021/05/17 08:09:49;;;;;;;;;;;;;;;20.61;65.19;99792.17;1686232;83;20258;-63
2021/05/17 08:12:15;;;;;;;;;;;;;;;20.60;65.16;99788.60;1665315;83;20248;-64
2021/05/17 08:14:42;;;;;;;;;;;;;;;20.58;65.13;99792.27;1662973;84;20322;-64
2021/05/17 08:17:08;;;;;;;;;;;;;;;20.58;65.10;99791.48;1648029;84;21071;-64
2021/05/17 08:19:34;;;;;;;;;;;;;;;20.56;65.10;99778.57;1678015;83;20322;-64
2021/05/17 08:22:00;;;;;;;;;;;;;;;20.55;65.09;99787.43;1673919;83;20483;-64
2021/05/17 08:24:26;;;;;;;;;;;;;;;20.54;65.07;99779.50;1683508;82;20463;-64
2021/05/17 08:26:52;;;;;;;;;;;;;;;20.53;65.05;99783.41;1682101;83;20234;-64
2021/05/17 08:29:19;;;;;;;;;;;;;;;20.52;65.04;99783.98;1684799;83;21123;-64
2021/05/17 08:31:47;;;;;;;;;;;;;;;20.50;65.03;99780.16;1686543;82;20285;-64
2021/05/17 08:34:12;;;;;;;;;;;;;;;20.49;65.03;99775.81;1695197;82;20247;-64
2021/05/17 08:36:38;;;;;;;;;;;;;;;20.50;65.02;99777.97;1685322;83;20224;-64
2021/05/17 08:39:05;;;;;;;;;;;;;;;20.48;65.01;99785.81;1685970;82;20323;-64
2021/05/17 08:41:33;;;;;;;;;;;;;;;20.48;65.00;99789.38;1686806;82;21081;-64
2021/05/17 08:43:59;;;;;;;;;;;;;;;20.47;64.98;99778.66;1684250;83;20291;-64
2021/05/17 08:46:26;;;;;;;;;;;;;;;20.46;64.96;99778.42;1686302;82;20252;-63
2021/05/17 08:51:16;;;;;;;;;;;;;;;20.50;64.96;99776.59;1881208;74;20192;-61
2021/05/17 08:53:44;;;;;;;;;;;;;;;20.44;64.94;99773.26;1847778;76;20503;-61
2021/05/17 08:56:10;;;;;;;;;;;;;;;20.44;64.94;99770.50;1854877;76;21031;-61
2021/05/17 08:58:36;;;;;;;;;;;;;;;20.44;64.91;99770.50;1850405;76;20166;-61
2021/05/17 09:01:03;;;;;;;;;;;;;;;20.45;64.90;99765.78;1857505;76;20494;-61
2021/05/17 09:03:31;;;;;;;;;;;;;;;20.44;64.87;99767.73;1853970;77;20146;-61
2021/05/17 09:05:57;;;;;;;;;;;;;;;20.44;64.89;99764.97;1848927;76;20169;-61
2021/05/17 09:08:26;;;;;;;;;;;;;;;20.43;64.86;99753.67;1821992;76;21198;-61
2021/05/17 09:10:52;;;;;;;;;;;;;;;20.43;64.85;99753.67;1853944;76;20150;-61
2021/05/17 09:13:19;;;;;;;;;;;;;;;20.44;64.84;99752.53;1853678;76;20482;-64
2021/05/17 09:15:54;;;;;;;;;;;;;;;20.44;64.85;99758.63;1850628;76;21463;-64
2021/05/17 09:18:27;;;;;;;;;;;;;;;20.44;64.83;99757.25;1854488;76;20495;-64
2021/05/17 09:20:52;;;;;;;;;;;;;;;20.46;64.77;99750.80;1846365;76;20985;-64
2021/05/17 09:23:24;;;;;;;;;;;;;;;20.49;64.75;99741.84;1851579;76;20237;-64
2021/05/17 09:26:03;;;;;;;;;;;;;;;20.52;64.73;99743.91;1850696;76;20201;-63
2021/05/17 09:28:34;;;;;;;;;;;;;;;20.54;64.74;99744.36;1854818;75;20177;-64
2021/05/17 09:31:06;;;;;;;;;;;;;;;20.58;64.75;99748.05;1849764;76;20165;-64
2021/05/17 09:33:44;;;;;;;;;;;;;;;20.62;64.76;99749.02;1852497;76;21109;-64
2021/05/17 09:36:27;;;;;;;;;;;;;;;20.66;64.75;99744.98;1854866;75;20212;-64
2021/05/17 09:39:02;;;;;;;;;;;;;;;20.71;64.74;99747.53;1848951;76;20454;-64
2021/05/17 09:41:44;;;;;;;;;;;;;;;20.76;64.72;99741.17;1851760;75;20214;-63
2021/05/17 09:44:11;;;;;;;;;;;;;;;20.80;64.69;99746.25;1850611;77;20227;-64
2021/05/17 09:47:07;;;;;;;;;;;;;;;20.84;64.69;99743.02;1852688;76;21092;-63
2021/05/17 09:49:51;;;;;;;;;;;;;;;20.86;64.65;99747.65;1852783;75;20198;-63
2021/05/17 09:52:28;;;;;;;;;;;;;;;20.90;64.58;99746.38;1856580;76;20165;-63
2021/05/17 09:55:08;;;;;;;;;;;;;;;20.91;64.50;99754.34;1859081;76;20474;-63
2021/05/17 09:57:40;;;;;;;;;;;;;;;20.93;64.43;99753.41;1859879;75;20224;-63
2021/05/17 10:00:17;;;;;;;;;;;;;;;20.94;64.35;99750.06;1856588;76;21055;-62
2021/05/17 10:02:53;;;;;;;;;;;;;;;20.93;64.27;99743.73;1855747;77;20121;-63
2021/05/17 10:05:28;;;;;;;;;;;;;;;20.95;64.21;99744.77;1862411;75;20154;-63
2021/05/17 10:07:57;;;;;;;;;;;;;;;20.95;64.17;99740.63;1852167;76;20177;-63
2021/05/17 10:10:23;;;;;;;;;;;;;;;20.97;64.13;99743.84;1857587;75;20423;-63
2021/05/17 10:12:53;;;;;;;;;;;;;;;20.97;64.07;99746.03;1854388;76;20984;-63
2021/05/17 10:15:19;;;;;;;;;;;;;;;21.00;64.02;99742.36;1860921;75;20207;-63
2021/05/17 10:17:46;;;;;;;;;;;;;;;21.00;63.99;99740.97;1858551;77;20216;-63
2021/05/17 10:20:15;;;;;;;;;;;;;;;21.00;63.95;99725.77;1856469;76;20170;-63
2021/05/17 10:22:42;;;;;;;;;;;;;;;21.00;63.91;99725.77;1852710;75;20258;-63
2021/05/17 10:25:09;;;;;;;;;;;;;;;20.99;63.86;99734.63;1859853;76;21278;-63
2021/05/17 10:27:42;;;;;;;;;;;;;;;20.98;63.84;99720.00;1855728;75;21134;-63
2021/05/17 10:30:09;;;;;;;;;;;;;;;20.97;63.81;99731.39;1852995;77;20150;-63
2021/05/17 10:32:45;;;;;;;;;;;;;;;20.97;63.81;99719.76;1857215;75;20458;-63
2021/05/17 10:35:17;;;;;;;;;;;;;;;20.98;63.80;99714.47;1853944;76;20348;-63
2021/05/17 10:37:44;;;;;;;;;;;;;;;21.01;63.83;99717.67;1858984;76;21044;-63
2021/05/17 10:40:16;;;;;;;;;;;;;;;21.02;63.78;99713.19;1855248;75;20154;-63
2021/05/17 10:42:51;;;;;;;;;;;;;;;21.05;63.75;99723.55;1857155;75;20239;-63
2021/05/17 10:48:26;;;;;;;;;;;;;;;21.08;63.69;99731.18;1860424;75;20209;-64
2021/05/17 10:51:10;;;;;;;;;;;;;;;21.11;63.67;99729.67;1851878;76;21938;-63
2021/05/17 10:53:58;;;;;;;;;;;;;;;21.13;63.61;99724.64;1824319;77;20161;-63
2021/05/17 10:56:47;;;;;;;;;;;;;;;21.14;63.58;99714.59;1842657;75;20514;-63
2021/05/17 11:02:00;;;;;;;;;;;;;;;21.18;63.48;99721.61;1688987;83;20653;-63
2021/05/17 11:04:29;;;;;;;;;;;;;;;21.19;63.42;99725.42;1698099;83;21177;-62
2021/05/17 11:07:23;;;;;;;;;;;;;;;21.22;63.38;99728.06;1721465;78;20307;-63
2021/05/17 11:10:01;;;;;;;;;;;;;;;21.24;63.36;99720.23;1811737;77;20244;-62
2021/05/17 11:12:30;;;;;;;;;;;;;;;21.26;63.32;99719.33;1792658;78;20294;-64
2021/05/17 11:15:18;;;;;;;;;;;;;;;21.30;63.24;99713.33;1789606;78;20182;-63
2021/05/17 11:18:11;;;;;;;;;;;;;;;21.34;63.17;99714.23;1790327;78;21115;-63
2021/05/17 11:20:45;;;;;;;;;;;;;;;21.37;63.14;99714.34;1789077;78;20202;-62
2021/05/17 11:23:18;;;;;;;;;;;;;;;21.40;63.07;99710.06;1792465;78;20168;-63
2021/05/17 11:25:48;;;;;;;;;;;;;;;21.41;63.01;99702.80;1784857;78;20255;-63
2021/05/17 11:28:14;;;;;;;;;;;;;;;21.45;62.95;99704.29;1786798;79;20148;-63
2021/05/17 11:30:42;;;;;;;;;;;;;;;21.47;62.91;99699.23;1786500;79;21038;-62
2021/05/17 11:33:17;;;;;;;;;;;;;;;21.52;62.84;99720.29;1791579;78;20143;-62
2021/05/17 11:36:03;;;;;;;;;;;;;;;21.52;62.80;99714.18;1789218;78;20309;-62
2021/05/17 11:38:29;;;;;;;;;;;;;;;21.56;62.73;99708.17;1783789;78;20230;-62
2021/05/17 11:40:55;;;;;;;;;;;;;;;21.59;62.67;99709.45;1760238;79;20259;-62
2021/05/17 11:43:21;;;;;;;;;;;;;;;21.62;62.62;99712.89;1792657;78;21085;-63
2021/05/17 11:45:47;;;;;;;;;;;;;;;21.64;62.57;99707.22;1791544;78;20155;-62
2021/05/17 11:48:13;;;;;;;;;;;;;;;21.68;62.49;99705.97;1791368;78;20259;-63
2021/05/17 11:50:39;;;;;;;;;;;;;;;21.70;62.48;99709.98;1786025;78;20139;-63
2021/05/17 11:53:07;;;;;;;;;;;;;;;21.72;62.42;99707.69;1770611;80;20184;-64
2021/05/17 11:55:37;;;;;;;;;;;;;;;21.74;62.35;99710.08;1752342;80;21136;-63
2021/05/17 11:58:03;;;;;;;;;;;;;;;21.75;62.32;99706.97;1785292;80;20551;-63
2021/05/17 12:00:29;;;;;;;;;;;;;;;21.77;62.26;99700.48;1779002;80;20700;-63
2021/05/17 12:02:55;;;;;;;;;;;;;;;21.79;62.20;99702.91;1783081;79;20198;-63
2021/05/17 12:05:22;;;;;;;;;;;;;;;21.80;62.17;99703.95;1782836;80;20153;-63
2021/05/17 12:07:52;;;;;;;;;;;;;;;21.81;62.14;99690.32;1788761;80;21041;-63
2021/05/17 12:10:20;;;;;;;;;;;;;;;21.83;62.11;99688.02;1777246;80;20183;-64
2021/05/17 12:12:46;;;;;;;;;;;;;;;21.84;62.06;99684.67;1775346;79;20149;-62
2021/05/17 12:15:16;;;;;;;;;;;;;;;21.85;62.00;99682.92;1778218;79;20274;-62
2021/05/17 12:17:42;;;;;;;;;;;;;;;21.86;61.98;99683.16;1775153;80;20270;-62
2021/05/17 12:20:13;;;;;;;;;;;;;;;21.88;61.96;99675.31;1781994;80;23328;-62
2021/05/17 12:22:44;;;;;;;;;;;;;;;21.92;61.91;99677.36;1773111;80;20483;-62
2021/05/17 12:25:13;;;;;;;;;;;;;;;21.95;61.86;99680.83;1782166;80;20127;-65
2021/05/17 12:27:39;;;;;;;;;;;;;;;21.98;61.79;99677.38;1784112;79;20162;-64
2021/05/17 12:30:09;;;;;;;;;;;;;;;22.01;61.75;99682.20;1784811;79;20163;-64
2021/05/17 12:32:38;;;;;;;;;;;;;;;22.02;61.69;99682.44;1786392;79;21905;-65
2021/05/17 12:35:23;;;;;;;;;;;;;;;22.03;61.64;99682.64;1786945;79;21616;-64
2021/05/17 12:37:58;;;;;;;;;;;;;;;22.05;61.58;99678.38;1780783;80;20784;-64
2021/05/17 12:40:28;;;;;;;;;;;;;;;22.07;61.53;99679.38;1774487;80;20476;-63
2021/05/17 12:43:10;;;;;;;;;;;;;;;22.07;61.47;99673.27;1778336;80;20227;-63
2021/05/17 12:45:45;;;;;;;;;;;;;;;22.09;61.43;99672.92;1788158;79;22001;-64
2021/05/17 12:48:30;;;;;;;;;;;;;;;22.10;61.35;99672.58;1758557;80;20253;-64
2021/05/17 12:50:57;;;;;;;;;;;;;;;22.11;61.30;99677.52;1786666;79;20262;-64
2021/05/17 12:53:28;;;;;;;;;;;;;;;22.12;61.26;99677.75;1796275;79;21459;-64
2021/05/17 12:56:01;;;;;;;;;;;;;;;22.13;61.20;99673.82;1800349;79;20511;-64
2021/05/17 12:58:40;;;;;;;;;;;;;;;22.14;61.17;99675.44;1791668;79;21143;-64
2021/05/17 13:01:09;;;;;;;;;;;;;;;22.14;61.13;99670.71;1781621;79;20626;-64
2021/05/17 13:03:36;;;;;;;;;;;;;;;22.14;61.07;99673.48;1784670;79;20475;-64
2021/05/17 13:06:11;;;;;;;;;;;;;;;22.14;61.05;99676.25;1801960;79;20174;-65
2021/05/17 13:08:40;;;;;;;;;;;;;;;22.14;61.02;99674.86;1801686;79;20893;-64
2021/05/17 13:11:09;;;;;;;;;;;;;;;22.13;60.98;99677.98;1793181;79;21192;-64
2021/05/17 13:13:59;;;;;;;;;;;;;;;22.13;60.96;99673.25;1799895;79;20150;-64
2021/05/17 13:16:34;;;;;;;;;;;;;;;22.13;60.96;99680.75;1797919;79;20230;-64
2021/05/17 13:33:30;;;;;;;;;;;;;;;22.06;60.82;99695.80;1806283;78;20196;-64
2021/05/17 13:36:05;;;;;;;;;;;;;;;22.03;60.81;99686.80;1806286;77;20246;-64
2021/05/17 13:38:38;;;;;;;;;;;;;;;22.02;60.81;99701.82;1780280;79;21082;-63
2021/05/17 13:41:05;;;;;;;;;;;;;;;22.01;60.79;99688.55;1793536;79;20180;-63
2021/05/17 13:43:31;;;;;;;;;;;;;;;21.99;60.79;99695.01;1791918;78;20479;-63
2021/05/17 13:45:57;;;;;;;;;;;;;;;21.97;60.77;99680.72;1791731;79;20170;-64